Austin, UT

6:39 PM MDT on August 27, 2016 (GMT -0600)
Putter Butt Farms | | Change Station

Elev 5322 ft 38.65 °N, 112.14 °W | Updated 23 seconds ago

Clear
Clear
71.1 °F
Feels Like 77 °F
N
0.0
Wind Variable Wind from WNW
Gusts 3.5 mph

Today
High -- | Low -- °F
--% Chance of Precip.
Yesterday
High -- | Low -- °F
Precip. -- in
Pressure 29.93 in
Visibility 10.0 miles
Clouds Clear
Heat Index 77 °F
Dew Point 44 °F
Humidity 37%
Rainfall 0.00 in
Snow Depth Not available.
6:53 AM 8:05 PM
Waning Crescent, 20% visible
METAR KMLF 272352Z AUTO 19012KT 10SM CLR 24/07 A3009 RMK AO2 SLP134 T02390067 10250 20200 56007
Pressure 29.93 in
Visibility 10.0 miles
Clouds Clear
Heat Index 77 °F
Dew Point 44 °F
Humidity 37%
Rainfall 0.00 in
Snow Depth Not available.
6:53 AM 8:05 PM
Waning Crescent, 20% visible
METAR KMLF 272352Z AUTO 19012KT 10SM CLR 24/07 A3009 RMK AO2 SLP134 T02390067 10250 20200 56007

10-Day Weather Forecast

Almanac

Astronomy

Aug. 27, 2016 Rise Set
Actual Time
Civil Twilight
Nautical Twilight
Astronomical Twilight
Moon
Length of Visible Light
Length of Day
Tomorrow will be .
, % of the Moon is Illuminated

Today's Extremes

State Highs State Lows

Community

WunderPhotos

Upload Photos

1,935,475 photos uploaded!

WunderBlog® & News

Nearby

Air Quality

  Air Quality AQ Index Pollutant
Not available.

Snow Depth

Station Depth Elevation

Earthquake Activity

City Distance Mag. Time & Date
Minimum magnitude displayed is 2.5.

Coastal Water Temperatures

Place Temperature

Stations

Nearby Weather Stations

Station Location Temp. Windchill Dew Point Humidity Wind Precip. Elev Updated Type
                   

Watches & Warnings

There are currently no watches in effect.